createdAt,value
2019-03-30T00:01:50.531Z,38.07
2019-03-30T00:04:19.838Z,34.90
2019-03-30T00:06:48.862Z,35.20
2019-03-30T00:09:17.851Z,36.27
2019-03-30T00:11:46.939Z,35.77
2019-03-30T00:14:15.946Z,37.33
2019-03-30T00:16:44.967Z,37.13
2019-03-30T00:19:14.099Z,37.50
2019-03-30T00:21:43.235Z,35.03
2019-03-30T00:24:12.237Z,36.03
2019-03-30T00:26:41.348Z,37.40
2019-03-30T00:29:10.351Z,37.87
2019-03-30T00:31:39.368Z,35.23
2019-03-30T00:34:08.501Z,34.23
2019-03-30T00:36:37.597Z,37.50
2019-03-30T00:39:06.919Z,36.30
2019-03-30T00:41:36.029Z,36.47
2019-03-30T00:44:05.198Z,34.57
2019-03-30T00:46:34.328Z,36.57
2019-03-30T00:49:03.307Z,32.77
2019-03-30T00:51:32.367Z,37.07
2019-03-30T00:54:01.371Z,36.40
2019-03-30T00:56:30.465Z,35.93
2019-03-30T00:58:59.496Z,36.17
2019-03-30T01:01:28.491Z,35.37
2019-03-30T01:03:57.505Z,34.43
2019-03-30T01:06:26.530Z,33.23
2019-03-30T01:08:55.551Z,34.17
2019-03-30T01:11:24.572Z,35.37
2019-03-30T01:13:53.577Z,34.47
2019-03-30T01:16:22.661Z,34.13
2019-03-30T01:18:51.679Z,33.40
2019-03-30T01:21:20.695Z,34.27
2019-03-30T01:23:49.747Z,35.07
2019-03-30T01:26:18.716Z,34.27
2019-03-30T01:28:47.704Z,35.70
2019-03-30T01:31:16.715Z,33.67
2019-03-30T01:33:45.734Z,31.63
2019-03-30T01:36:14.739Z,32.90
2019-03-30T01:38:43.766Z,36.10
2019-03-30T01:41:12.756Z,32.80
2019-03-30T01:43:41.735Z,32.97
2019-03-30T01:46:10.730Z,31.57
2019-03-30T01:48:39.729Z,31.97
2019-03-30T01:51:08.739Z,34.43
2019-03-30T01:53:37.753Z,33.57
2019-03-30T01:56:06.868Z,31.67
2019-03-30T01:58:35.932Z,29.37
2019-03-30T02:01:05.207Z,33.60
2019-03-30T02:03:34.213Z,30.87
2019-03-30T02:06:03.525Z,34.17
2019-03-30T02:08:32.887Z,31.17
2019-03-30T02:11:01.986Z,35.00
2019-03-30T02:13:31.075Z,33.50
2019-03-30T02:16:00.145Z,31.20
2019-03-30T02:18:29.137Z,30.40
2019-03-30T02:20:58.163Z,32.00
2019-03-30T02:23:27.478Z,32.37
2019-03-30T02:25:56.469Z,31.57
2019-03-30T02:28:25.475Z,32.80
2019-03-30T02:30:54.486Z,31.63
2019-03-30T02:33:23.499Z,31.93
2019-03-30T02:35:52.570Z,32.17
2019-03-30T02:38:21.581Z,33.73
2019-03-30T02:40:50.671Z,32.57
2019-03-30T02:43:19.668Z,33.27
2019-03-30T02:45:48.745Z,32.23
2019-03-30T02:48:17.755Z,34.33
2019-03-30T02:50:50.396Z,30.97
2019-03-30T02:53:17.563Z,32.20
2019-03-30T02:55:46.672Z,32.00
2019-03-30T02:58:15.765Z,32.67
2019-03-30T03:00:44.898Z,34.60
2019-03-30T03:03:14.141Z,31.67
2019-03-30T03:05:43.269Z,32.90
2019-03-30T03:08:12.516Z,32.13
2019-03-30T03:10:41.518Z,31.67
2019-03-30T03:13:10.554Z,33.53
2019-03-30T03:15:39.535Z,34.47
2019-03-30T03:18:08.543Z,35.93
2019-03-30T03:20:37.525Z,32.90
2019-03-30T03:23:06.537Z,33.73
2019-03-30T03:25:35.534Z,31.67
2019-03-30T03:28:04.543Z,31.87
2019-03-30T03:30:33.547Z,34.03
2019-03-30T03:33:02.568Z,33.77
2019-03-30T03:35:31.571Z,33.43
2019-03-30T03:38:00.600Z,31.90
2019-03-30T03:40:29.691Z,33.40
2019-03-30T03:42:59.073Z,35.00
2019-03-30T03:45:28.067Z,31.83
2019-03-30T03:47:57.183Z,30.60
2019-03-30T03:50:58.010Z,32.60
2019-03-30T03:53:27.104Z,32.80
2019-03-30T03:55:56.108Z,33.80
2019-03-30T03:58:26.915Z,33.23
2019-03-30T04:00:55.931Z,31.53
2019-03-30T04:03:24.922Z,30.83
2019-03-30T04:05:55.922Z,32.37
2019-03-30T04:08:24.946Z,30.73
2019-03-30T04:10:53.998Z,34.50
2019-03-30T04:13:23.017Z,25.13
2019-03-30T04:15:52.038Z,26.53
2019-03-30T04:18:21.093Z,28.20
2019-03-30T04:20:50.222Z,30.77
2019-03-30T04:23:19.611Z,32.30
2019-03-30T04:25:48.640Z,32.37
2019-03-30T04:28:17.731Z,31.03
2019-03-30T04:30:46.731Z,32.50
2019-03-30T04:33:15.747Z,32.20
2019-03-30T04:35:44.840Z,31.43
2019-03-30T04:38:14.478Z,31.40
2019-03-30T04:40:43.727Z,29.67
2019-03-30T04:43:12.735Z,31.60
2019-03-30T04:45:42.049Z,31.83
2019-03-30T04:48:11.350Z,29.87
2019-03-30T04:50:40.438Z,29.47
2019-03-30T04:53:09.581Z,31.53
2019-03-30T04:55:38.682Z,31.77
2019-03-30T04:58:09.397Z,31.57
2019-03-30T05:00:38.495Z,31.63
2019-03-30T05:03:07.491Z,30.30
2019-03-30T05:05:36.473Z,26.73
2019-03-30T05:08:05.507Z,29.00
2019-03-30T05:10:34.577Z,31.20
2019-03-30T05:13:03.580Z,30.87
2019-03-30T05:15:32.576Z,29.73
2019-03-30T05:18:01.706Z,29.30
2019-03-30T05:20:30.710Z,27.73
2019-03-30T05:22:59.714Z,27.23
2019-03-30T05:25:28.715Z,30.37
2019-03-30T05:27:57.720Z,27.33
2019-03-30T05:30:26.738Z,28.83
2019-03-30T05:33:05.608Z,26.90
2019-03-30T05:35:26.513Z,29.07
2019-03-30T05:37:55.535Z,28.17
2019-03-30T05:40:24.551Z,29.23
2019-03-30T05:42:53.563Z,27.47
2019-03-30T05:45:22.561Z,24.73
2019-03-30T05:47:51.633Z,28.13
2019-03-30T05:50:21.008Z,27.37
2019-03-30T05:52:50.004Z,27.13
2019-03-30T05:55:19.385Z,27.33
2019-03-30T05:57:48.402Z,28.93
2019-03-30T06:00:20.589Z,30.23
2019-03-30T06:02:49.693Z,28.67
2019-03-30T06:05:18.681Z,28.00
2019-03-30T06:07:47.748Z,26.83
2019-03-30T06:10:16.739Z,26.53
2019-03-30T06:12:45.736Z,25.53
2019-03-30T06:15:14.718Z,25.97
2019-03-30T06:17:43.814Z,22.87
2019-03-30T06:20:12.817Z,21.40
2019-03-30T06:22:41.830Z,21.63
2019-03-30T06:25:10.867Z,20.70
2019-03-30T06:27:39.922Z,22.80
2019-03-30T06:30:28.637Z,19.00
2019-03-30T06:32:57.625Z,20.73
2019-03-30T06:35:26.639Z,20.23
2019-03-30T06:37:55.641Z,20.90
2019-03-30T06:40:24.670Z,21.57
2019-03-30T06:42:53.699Z,22.27
2019-03-30T06:45:22.794Z,18.90
2019-03-30T06:47:51.808Z,17.80
2019-03-30T06:50:20.831Z,22.33
2019-03-30T06:52:57.432Z,21.43
2019-03-30T06:55:20.660Z,20.40
2019-03-30T06:57:49.824Z,20.17
2019-03-30T07:00:22.517Z,21.37
2019-03-30T07:02:51.529Z,16.53
2019-03-30T07:05:20.543Z,16.13
2019-03-30T07:07:49.591Z,18.57
2019-03-30T07:10:18.592Z,19.70
2019-03-30T07:12:47.785Z,21.43
2019-03-30T07:15:16.791Z,10.90
2019-03-30T07:17:47.021Z,16.23
2019-03-30T07:20:27.257Z,17.90
2019-03-30T07:23:10.756Z,18.43
2019-03-30T07:25:28.033Z,16.17
2019-03-30T07:27:57.498Z,17.00
2019-03-30T07:30:26.489Z,19.07
2019-03-30T07:32:55.525Z,19.80
2019-03-30T07:35:24.586Z,16.93
2019-03-30T07:37:53.586Z,18.13
2019-03-30T07:40:22.569Z,15.43
2019-03-30T07:42:51.579Z,15.03
2019-03-30T07:45:20.598Z,15.80
2019-03-30T07:47:49.679Z,16.87
2019-03-30T07:50:18.787Z,15.33
2019-03-30T07:52:47.798Z,15.93
2019-03-30T07:55:16.835Z,15.97
2019-03-30T07:57:45.830Z,16.37
2019-03-30T08:00:15.039Z,17.50
2019-03-30T08:02:44.081Z,17.07
2019-03-30T08:05:13.080Z,15.10
2019-03-30T08:07:42.641Z,14.60
2019-03-30T08:10:11.750Z,14.93
2019-03-30T08:12:40.769Z,14.77
2019-03-30T08:15:10.358Z,14.77
2019-03-30T08:17:39.453Z,14.60
2019-03-30T08:20:08.804Z,12.93
2019-03-30T08:22:38.040Z,18.03
2019-03-30T08:25:07.397Z,11.43
2019-03-30T08:27:36.682Z,14.83
2019-03-30T08:30:06.907Z,13.97
2019-03-30T08:32:35.917Z,14.60
2019-03-30T08:35:05.263Z,17.27
2019-03-30T08:37:34.274Z,16.53
2019-03-30T08:40:03.283Z,15.57
2019-03-30T08:42:32.314Z,14.63
2019-03-30T08:45:01.423Z,14.43
2019-03-30T08:47:30.444Z,14.00
2019-03-30T08:49:59.464Z,15.47
2019-03-30T08:52:28.459Z,13.23
2019-03-30T08:54:57.471Z,14.17
2019-03-30T08:57:26.481Z,16.80
2019-03-30T08:59:55.492Z,17.07
2019-03-30T09:02:24.517Z,16.73
2019-03-30T09:04:53.527Z,15.30
2019-03-30T09:07:22.539Z,14.43
2019-03-30T09:09:51.541Z,17.40
2019-03-30T09:12:20.777Z,19.13
2019-03-30T09:14:49.795Z,17.70
2019-03-30T09:17:18.814Z,19.73
2019-03-30T09:19:47.819Z,18.17
2019-03-30T09:22:17.094Z,15.07
2019-03-30T09:24:46.108Z,18.13
2019-03-30T09:27:15.135Z,17.87
2019-03-30T09:29:44.115Z,18.43
2019-03-30T09:32:15.052Z,19.63
2019-03-30T09:34:44.156Z,18.70
2019-03-30T09:37:13.169Z,16.33
2019-03-30T09:39:42.411Z,19.60
2019-03-30T09:42:11.412Z,15.00
2019-03-30T09:44:40.419Z,18.77
2019-03-30T09:47:09.471Z,14.80
2019-03-30T09:49:38.583Z,17.83
2019-03-30T09:52:08.189Z,19.47
2019-03-30T09:54:37.183Z,19.20
2019-03-30T09:57:06.530Z,14.40
2019-03-30T09:59:35.948Z,19.90
2019-03-30T10:02:05.399Z,15.67
2019-03-30T10:04:34.693Z,14.80
2019-03-30T10:07:03.685Z,13.73
2019-03-30T10:09:32.768Z,14.87
2019-03-30T10:12:03.912Z,12.93
2019-03-30T10:14:33.210Z,13.77
2019-03-30T10:17:02.219Z,19.93
2019-03-30T10:19:31.505Z,16.77
2019-03-30T10:22:00.535Z,16.40
2019-03-30T10:24:37.901Z,17.93
2019-03-30T10:27:00.295Z,13.93
2019-03-30T10:29:29.632Z,16.67
2019-03-30T10:32:00.020Z,19.87
2019-03-30T10:34:29.116Z,15.43
2019-03-30T10:36:58.130Z,15.40
2019-03-30T10:39:27.161Z,18.10
2019-03-30T10:41:56.473Z,18.27
2019-03-30T10:44:25.770Z,17.50
2019-03-30T10:46:54.894Z,16.67
2019-03-30T10:49:23.886Z,16.23
2019-03-30T10:51:54.455Z,15.47
2019-03-30T10:54:23.648Z,18.67
2019-03-30T10:56:52.643Z,19.70
2019-03-30T10:59:21.657Z,16.27
2019-03-30T11:01:50.676Z,14.07
2019-03-30T11:04:19.705Z,17.10
2019-03-30T11:06:48.712Z,21.47
2019-03-30T11:09:17.738Z,18.40
2019-03-30T11:11:46.834Z,18.57
2019-03-30T11:14:15.871Z,20.27
2019-03-30T11:16:44.883Z,16.90
2019-03-30T11:19:13.891Z,17.13
2019-03-30T11:21:42.915Z,22.33
2019-03-30T11:24:11.930Z,16.80
2019-03-30T11:26:40.966Z,20.37
2019-03-30T11:29:10.057Z,22.17
2019-03-30T11:31:39.045Z,19.50
2019-03-30T11:34:08.560Z,22.30
2019-03-30T11:36:37.857Z,19.60
2019-03-30T11:39:06.916Z,17.27
2019-03-30T11:41:35.922Z,19.33
2019-03-30T11:44:04.950Z,18.80
2019-03-30T11:46:33.989Z,15.73
2019-03-30T11:49:02.993Z,19.73
2019-03-30T11:51:32.158Z,17.03
2019-03-30T11:54:01.111Z,15.30
2019-03-30T11:56:30.177Z,16.30
2019-03-30T11:58:59.211Z,19.47
2019-03-30T12:01:28.231Z,15.03
2019-03-30T12:03:57.245Z,17.03
2019-03-30T12:06:26.503Z,17.43
2019-03-30T12:08:55.862Z,16.50
2019-03-30T12:11:24.876Z,17.77
2019-03-30T12:13:53.903Z,18.87
2019-03-30T12:16:22.919Z,15.53
2019-03-30T12:18:51.943Z,17.87
2019-03-30T12:21:20.963Z,19.80
2019-03-30T12:23:49.984Z,17.50
2019-03-30T12:26:19.234Z,17.57
2019-03-30T12:28:48.271Z,11.73
2019-03-30T12:31:17.291Z,14.73
2019-03-30T12:33:46.331Z,16.77
2019-03-30T12:36:15.626Z,14.83
2019-03-30T12:38:44.648Z,14.40
2019-03-30T12:41:13.685Z,17.77
2019-03-30T12:43:43.151Z,15.50
2019-03-30T12:46:12.158Z,16.87
2019-03-30T12:48:41.204Z,13.80
2019-03-30T12:51:10.190Z,13.50
2019-03-30T12:53:49.455Z,15.17
2019-03-30T12:56:09.920Z,17.47
2019-03-30T12:58:39.216Z,13.97
2019-03-30T13:01:08.291Z,14.73
2019-03-30T13:03:37.402Z,14.90
2019-03-30T13:06:06.419Z,12.47
2019-03-30T13:08:35.472Z,11.57
2019-03-30T13:11:04.518Z,13.73
2019-03-30T13:13:33.547Z,13.47
2019-03-30T13:16:02.571Z,14.83
2019-03-30T13:18:31.662Z,12.93
2019-03-30T13:21:00.679Z,13.77
2019-03-30T13:23:29.703Z,11.80
2019-03-30T13:26:03.989Z,9.87
2019-03-30T13:28:29.426Z,13.73
2019-03-30T13:30:58.420Z,14.63
2019-03-30T13:33:27.456Z,14.33
2019-03-30T13:35:56.466Z,13.00
2019-03-30T13:38:25.948Z,14.27
2019-03-30T13:40:55.053Z,14.20
2019-03-30T13:43:24.067Z,10.07
2019-03-30T13:45:53.070Z,9.23
2019-03-30T13:48:22.112Z,10.80
2019-03-30T13:50:51.128Z,12.20
2019-03-30T13:53:20.139Z,10.77
2019-03-30T13:55:49.175Z,12.73
2019-03-30T13:58:18.246Z,11.37
2019-03-30T14:00:47.262Z,10.70
2019-03-30T14:03:16.291Z,10.40
2019-03-30T14:05:45.643Z,12.93
2019-03-30T14:08:14.948Z,12.53
2019-03-30T14:10:44.066Z,11.57
2019-03-30T14:13:13.094Z,11.07
2019-03-30T14:15:42.100Z,9.50
2019-03-30T14:18:11.205Z,11.93
2019-03-30T14:20:40.185Z,13.20
2019-03-30T14:23:09.207Z,11.43
2019-03-30T14:25:38.242Z,11.53
2019-03-30T14:28:07.268Z,11.17
2019-03-30T14:30:36.258Z,10.30
2019-03-30T14:33:05.269Z,10.10
2019-03-30T14:35:34.269Z,8.50
2019-03-30T14:38:03.363Z,11.30
2019-03-30T14:40:32.381Z,10.27
2019-03-30T14:43:01.650Z,9.37
2019-03-30T14:45:30.636Z,9.67
2019-03-30T14:47:59.935Z,8.97
2019-03-30T14:50:28.939Z,8.60
2019-03-30T14:52:58.248Z,7.57
2019-03-30T14:55:27.213Z,7.03
2019-03-30T14:57:56.469Z,7.37
2019-03-30T15:00:25.585Z,6.67
2019-03-30T15:02:54.757Z,8.57
2019-03-30T15:05:23.701Z,8.23
2019-03-30T15:07:53.003Z,7.63
2019-03-30T15:10:22.015Z,9.80
2019-03-30T15:12:51.020Z,10.20
2019-03-30T15:15:20.033Z,8.60
2019-03-30T15:17:49.042Z,9.07
2019-03-30T15:20:18.324Z,9.10
2019-03-30T15:22:47.710Z,10.10
2019-03-30T15:25:16.982Z,10.73
2019-03-30T15:27:46.003Z,10.00
2019-03-30T15:30:16.056Z,10.43
2019-03-30T15:32:45.074Z,10.63
2019-03-30T15:35:14.236Z,10.50
2019-03-30T15:37:43.249Z,10.63
2019-03-30T15:40:12.342Z,8.97
2019-03-30T15:42:41.372Z,11.33
2019-03-30T15:45:10.489Z,9.67
2019-03-30T15:47:39.494Z,10.67
2019-03-30T15:50:08.598Z,10.03
2019-03-30T15:52:37.613Z,11.90
2019-03-30T15:55:06.688Z,10.93
2019-03-30T15:57:35.701Z,9.27
2019-03-30T16:00:07.047Z,10.17
2019-03-30T16:02:36.301Z,9.40
2019-03-30T16:05:05.701Z,9.87
2019-03-30T16:07:34.731Z,12.27
2019-03-30T16:10:04.150Z,8.57
2019-03-30T16:12:33.195Z,9.47
2019-03-30T16:15:02.222Z,9.67
2019-03-30T16:17:31.573Z,9.07
2019-03-30T16:20:00.578Z,8.77
2019-03-30T16:22:29.868Z,8.80
2019-03-30T16:24:58.898Z,9.10
2019-03-30T16:27:29.403Z,8.63
2019-03-30T16:29:59.145Z,9.23
2019-03-30T16:32:28.159Z,7.93
2019-03-30T16:34:57.180Z,10.10
2019-03-30T16:37:27.005Z,7.67
2019-03-30T16:39:56.330Z,9.93
2019-03-30T16:42:25.347Z,6.97
2019-03-30T16:44:54.463Z,7.87
2019-03-30T16:47:23.474Z,7.50
2019-03-30T16:49:52.820Z,7.70
2019-03-30T16:52:22.236Z,9.23
2019-03-30T16:54:51.326Z,10.47
2019-03-30T16:57:20.312Z,10.07
2019-03-30T16:59:49.419Z,10.33
2019-03-30T17:02:18.452Z,11.63
2019-03-30T17:04:47.448Z,9.20
2019-03-30T17:07:16.473Z,10.40
2019-03-30T17:09:45.555Z,9.33
2019-03-30T17:12:14.691Z,8.70
2019-03-30T17:14:43.604Z,9.90
2019-03-30T17:17:13.033Z,8.10
2019-03-30T17:19:42.045Z,9.00
2019-03-30T17:22:11.299Z,10.57
2019-03-30T17:24:40.406Z,7.70
2019-03-30T17:27:09.506Z,10.40
2019-03-30T17:29:38.592Z,10.67
2019-03-30T17:32:07.774Z,11.30
2019-03-30T17:34:36.849Z,10.60
2019-03-30T17:37:05.956Z,15.87
2019-03-30T17:39:35.038Z,16.77
2019-03-30T17:42:04.072Z,22.77
2019-03-30T17:44:33.164Z,25.77
2019-03-30T17:47:02.265Z,26.40
2019-03-30T17:49:31.293Z,24.17
2019-03-30T17:52:00.298Z,24.87
2019-03-30T17:54:29.294Z,26.73
2019-03-30T17:56:58.303Z,29.40
2019-03-30T17:59:27.394Z,28.53
2019-03-30T18:01:56.747Z,32.13
2019-03-30T18:04:25.789Z,28.17
2019-03-30T18:06:54.825Z,30.10
2019-03-30T18:09:23.824Z,28.90
2019-03-30T18:11:52.836Z,24.80
2019-03-30T18:14:21.832Z,28.63
2019-03-30T18:16:50.827Z,29.17
2019-03-30T18:19:19.860Z,30.63
2019-03-30T18:21:48.943Z,34.10
2019-03-30T18:24:18.027Z,29.80
2019-03-30T18:26:46.998Z,32.10
2019-03-30T18:29:16.027Z,30.97
2019-03-30T18:31:45.023Z,31.13
2019-03-30T18:34:14.129Z,30.27
2019-03-30T18:36:43.500Z,28.47
2019-03-30T18:39:12.547Z,28.80
2019-03-30T18:41:41.530Z,29.30
2019-03-30T18:44:10.554Z,26.40
2019-03-30T18:46:39.621Z,28.97
2019-03-30T18:49:08.657Z,28.43
2019-03-30T18:51:37.739Z,32.17
2019-03-30T18:54:06.809Z,27.67
2019-03-30T18:56:36.127Z,30.97
2019-03-30T18:59:05.130Z,28.10
2019-03-30T19:01:34.480Z,32.67
2019-03-30T19:04:03.814Z,34.13
2019-03-30T19:06:32.809Z,30.60
2019-03-30T19:09:01.806Z,37.87
2019-03-30T19:11:31.079Z,37.40
2019-03-30T19:14:00.107Z,37.67
2019-03-30T19:16:29.102Z,40.10
2019-03-30T19:18:58.175Z,40.60
2019-03-30T19:21:27.484Z,38.73
2019-03-30T19:23:56.510Z,36.37
2019-03-30T19:26:25.537Z,44.03
2019-03-30T19:28:56.618Z,40.10
2019-03-30T19:31:25.712Z,35.70
2019-03-30T19:33:54.822Z,40.30
2019-03-30T19:36:24.113Z,41.00
2019-03-30T19:38:53.269Z,40.83
2019-03-30T19:41:22.350Z,41.43
2019-03-30T19:43:51.707Z,38.23
2019-03-30T19:46:20.743Z,36.60
2019-03-30T19:48:49.764Z,38.37
2019-03-30T19:51:18.831Z,41.33
2019-03-30T19:53:48.072Z,38.70
2019-03-30T19:56:17.393Z,34.37
2019-03-30T19:58:46.453Z,39.57
2019-03-30T20:01:15.513Z,38.67
2019-03-30T20:03:44.553Z,38.30
2019-03-30T20:06:13.574Z,36.63
2019-03-30T20:08:42.596Z,34.83
2019-03-30T20:11:11.601Z,41.47
2019-03-30T20:13:40.618Z,33.57
2019-03-30T20:16:09.633Z,33.93
2019-03-30T20:18:38.678Z,34.23
2019-03-30T20:21:07.934Z,34.63
2019-03-30T20:23:37.034Z,38.70
2019-03-30T20:26:06.034Z,30.90
2019-03-30T20:28:35.371Z,38.27
2019-03-30T20:31:04.406Z,43.53
2019-03-30T20:33:33.435Z,36.73
2019-03-30T20:36:02.442Z,38.07
2019-03-30T20:38:31.458Z,39.17
2019-03-30T20:41:00.539Z,41.07
2019-03-30T20:43:29.811Z,39.30
2019-03-30T20:45:58.822Z,37.47
2019-03-30T20:48:28.103Z,39.60
2019-03-30T20:50:57.226Z,34.63
2019-03-30T20:53:26.238Z,37.57
2019-03-30T20:55:55.394Z,35.97
2019-03-30T20:58:24.691Z,40.33
2019-03-30T21:00:53.689Z,41.33
2019-03-30T21:03:23.039Z,38.77
2019-03-30T21:05:52.031Z,39.80
2019-03-30T21:08:21.085Z,37.83
2019-03-30T21:10:50.102Z,36.33
2019-03-30T21:13:19.456Z,34.97
2019-03-30T21:15:48.563Z,37.70
2019-03-30T21:18:17.722Z,34.77
2019-03-30T21:20:46.812Z,43.07
2019-03-30T21:23:15.879Z,41.03
2019-03-30T21:25:44.894Z,36.37
2019-03-30T21:28:13.939Z,42.40
2019-03-30T21:30:43.026Z,38.37
2019-03-30T21:33:12.294Z,39.73
2019-03-30T21:35:41.591Z,43.17
2019-03-30T21:38:10.578Z,44.37
2019-03-30T21:40:39.603Z,44.67
2019-03-30T21:43:08.616Z,39.00
2019-03-30T21:45:37.645Z,46.47
2019-03-30T21:48:06.666Z,48.17
2019-03-30T21:50:35.709Z,47.33
2019-03-30T21:53:04.729Z,49.40
2019-03-30T21:55:33.987Z,47.50
2019-03-30T21:58:03.102Z,47.23
2019-03-30T22:00:36.849Z,47.87
2019-03-30T22:03:06.125Z,49.33
2019-03-30T22:05:35.566Z,50.60
2019-03-30T22:08:05.413Z,42.00
2019-03-30T22:10:34.593Z,46.10
2019-03-30T22:13:03.603Z,47.77
2019-03-30T22:15:32.640Z,43.60
2019-03-30T22:18:01.731Z,44.67
2019-03-30T22:20:30.772Z,45.97
2019-03-30T22:22:59.808Z,50.23
2019-03-30T22:25:28.888Z,46.10
2019-03-30T22:27:57.928Z,48.30
2019-03-30T22:30:27.242Z,39.33
2019-03-30T22:32:56.466Z,45.13
2019-03-30T22:35:25.503Z,50.17
2019-03-30T22:37:54.523Z,46.80
2019-03-30T22:40:23.563Z,48.27
2019-03-30T22:42:52.584Z,49.47
2019-03-30T22:45:21.632Z,46.17
2019-03-30T22:47:50.660Z,47.40
2019-03-30T22:50:19.689Z,43.00
2019-03-30T22:52:48.713Z,44.73
2019-03-30T22:55:17.880Z,43.40
2019-03-30T22:57:46.899Z,43.73
2019-03-30T23:00:39.081Z,41.80
2019-03-30T23:03:07.028Z,43.67
2019-03-30T23:05:36.033Z,35.60
2019-03-30T23:08:05.059Z,38.63
2019-03-30T23:10:34.114Z,42.77
2019-03-30T23:13:03.170Z,40.87
2019-03-30T23:15:32.160Z,43.83
2019-03-30T23:18:01.161Z,34.57
2019-03-30T23:20:30.456Z,39.53
2019-03-30T23:22:59.518Z,38.53
2019-03-30T23:25:28.546Z,38.77
2019-03-30T23:27:57.539Z,34.53
2019-03-30T23:30:27.563Z,34.97
2019-03-30T23:32:56.562Z,34.50
2019-03-30T23:35:25.538Z,33.07
2019-03-30T23:37:54.612Z,34.57
2019-03-30T23:40:23.662Z,30.10
2019-03-30T23:42:52.682Z,29.37
2019-03-30T23:45:21.691Z,26.67
2019-03-30T23:47:50.708Z,26.70
2019-03-30T23:50:19.708Z,30.53
2019-03-30T23:52:48.748Z,30.47
2019-03-30T23:55:17.778Z,32.10
2019-03-30T23:57:46.776Z,27.53
